createdAt,value
2023-01-25T00:00:05.065Z,1.30
2023-01-25T00:02:10.486Z,1.20
2023-01-25T00:04:15.703Z,1.10
2023-01-25T00:06:21.368Z,1.20
2023-01-25T00:08:26.325Z,1.10
2023-01-25T00:10:31.689Z,1.10
2023-01-25T00:12:39.234Z,1.10
2023-01-25T00:14:44.234Z,1.20
2023-01-25T00:16:49.795Z,1.30
2023-01-25T00:18:55.190Z,1.20
2023-01-25T00:21:01.218Z,1.10
2023-01-25T00:23:06.225Z,1.10
2023-01-25T00:25:13.307Z,1.00
2023-01-25T00:27:18.267Z,1.00
2023-01-25T00:29:26.745Z,1.00
2023-01-25T00:31:40.697Z,1.00
2023-01-25T00:33:55.061Z,1.10
2023-01-25T00:36:00.843Z,1.20
2023-01-25T00:38:25.022Z,1.10
2023-01-25T00:40:31.122Z,1.10
2023-01-25T00:42:37.000Z,1.20
2023-01-25T00:44:45.565Z,1.10
2023-01-25T00:46:51.079Z,1.20
2023-01-25T00:48:57.731Z,1.20
2023-01-25T00:51:03.744Z,1.10
2023-01-25T00:53:09.234Z,1.10
2023-01-25T00:55:14.418Z,1.10
2023-01-25T00:57:20.129Z,0.90
2023-01-25T00:59:26.016Z,0.90
2023-01-25T01:01:35.095Z,1.00
2023-01-25T01:03:40.186Z,1.00
2023-01-25T01:05:45.291Z,1.00
2023-01-25T01:07:53.083Z,1.00
2023-01-25T01:09:59.277Z,1.00
2023-01-25T01:12:04.275Z,1.00
2023-01-25T01:14:09.494Z,1.10
2023-01-25T01:16:16.382Z,1.00
2023-01-25T01:18:24.546Z,1.10
2023-01-25T01:20:29.869Z,1.00
2023-01-25T01:22:34.771Z,1.00
2023-01-25T01:24:39.841Z,1.10
2023-01-25T01:26:44.787Z,1.20
2023-01-25T01:28:50.378Z,1.20
2023-01-25T01:30:57.125Z,1.20
2023-01-25T01:33:02.539Z,1.20
2023-01-25T01:35:12.039Z,1.20
2023-01-25T01:37:16.954Z,1.20
2023-01-25T01:39:21.814Z,1.10
2023-01-25T01:41:26.678Z,1.00
2023-01-25T01:43:32.254Z,1.00
2023-01-25T01:45:58.265Z,1.00
2023-01-25T01:48:14.209Z,1.00
2023-01-25T01:50:26.320Z,1.10
2023-01-25T01:52:37.107Z,0.90
2023-01-25T01:54:46.272Z,0.90
2023-01-25T01:56:59.180Z,0.90
2023-01-25T01:59:07.487Z,0.90
2023-01-25T02:01:13.067Z,0.80
2023-01-25T02:03:18.966Z,0.80
2023-01-25T02:05:42.685Z,0.80
2023-01-25T02:07:52.289Z,0.80
2023-01-25T02:09:58.063Z,1.00
2023-01-25T02:12:03.735Z,0.90
2023-01-25T02:14:11.129Z,0.90
2023-01-25T02:16:22.354Z,0.90
2023-01-25T02:18:28.177Z,1.00
2023-01-25T02:20:40.410Z,0.90
2023-01-25T02:22:54.551Z,1.00
2023-01-25T02:25:09.585Z,1.00
2023-01-25T02:27:15.237Z,1.10
2023-01-25T02:29:24.170Z,1.10
2023-01-25T02:31:31.694Z,1.10
2023-01-25T02:33:38.179Z,1.10
2023-01-25T02:35:48.040Z,1.10
2023-01-25T02:37:55.614Z,1.00
2023-01-25T02:40:00.543Z,0.90
2023-01-25T02:42:09.460Z,1.00
2023-01-25T02:44:20.790Z,1.10
2023-01-25T02:46:30.667Z,1.10
2023-01-25T02:48:36.134Z,1.10
2023-01-25T02:50:41.088Z,1.10
2023-01-25T02:52:46.035Z,1.10
2023-01-25T02:54:51.702Z,1.10
2023-01-25T02:56:57.066Z,1.00
2023-01-25T02:59:07.809Z,1.10
2023-01-25T03:01:14.566Z,1.10
2023-01-25T03:03:20.756Z,1.10
2023-01-25T03:05:25.693Z,1.10
2023-01-25T03:07:31.548Z,1.00
2023-01-25T03:09:37.114Z,1.10
2023-01-25T03:11:42.725Z,1.10
2023-01-25T03:13:48.890Z,1.10
2023-01-25T03:16:04.151Z,1.10
2023-01-25T03:18:10.920Z,1.10
2023-01-25T03:20:16.753Z,1.10
2023-01-25T03:22:22.166Z,1.10
2023-01-25T03:24:28.907Z,1.10
2023-01-25T03:26:54.390Z,1.10
2023-01-25T03:29:04.702Z,1.10
2023-01-25T03:31:17.447Z,1.10
2023-01-25T03:33:23.123Z,1.10
2023-01-25T03:35:28.908Z,1.00
2023-01-25T03:37:34.555Z,1.10
2023-01-25T03:39:41.629Z,1.10
2023-01-25T03:41:47.425Z,1.10
2023-01-25T03:43:53.762Z,1.00
2023-01-25T03:46:02.327Z,1.00
2023-01-25T03:48:12.787Z,0.90
2023-01-25T03:50:21.512Z,0.80
2023-01-25T03:52:27.428Z,0.90
2023-01-25T03:54:33.836Z,1.00
2023-01-25T03:56:39.379Z,1.00
2023-01-25T03:58:55.592Z,1.00
2023-01-25T04:01:03.407Z,1.00
2023-01-25T04:03:08.392Z,1.00
2023-01-25T04:05:16.482Z,1.00
2023-01-25T04:07:21.872Z,1.00
2023-01-25T04:09:26.824Z,0.90
2023-01-25T04:11:34.985Z,1.00
2023-01-25T04:13:42.060Z,0.90
2023-01-25T04:15:49.946Z,0.60
2023-01-25T04:18:09.575Z,0.60
2023-01-25T04:20:18.741Z,0.70
2023-01-25T04:22:24.409Z,0.70
2023-01-25T04:24:32.531Z,0.70
2023-01-25T04:26:37.749Z,0.70
2023-01-25T04:28:44.039Z,0.60
2023-01-25T04:30:49.765Z,0.80
2023-01-25T04:32:56.146Z,0.80
2023-01-25T04:35:09.883Z,0.70
2023-01-25T04:37:18.137Z,0.50
2023-01-25T04:39:30.738Z,0.60
2023-01-25T04:41:35.657Z,0.70
2023-01-25T04:43:40.633Z,0.80
2023-01-25T04:45:49.109Z,0.50
2023-01-25T04:48:02.761Z,0.50
2023-01-25T04:50:09.521Z,0.70
2023-01-25T04:52:18.548Z,0.70
2023-01-25T04:54:23.665Z,0.80
2023-01-25T04:56:28.576Z,0.80
2023-01-25T04:58:36.768Z,0.80
2023-01-25T05:00:41.958Z,0.80
2023-01-25T05:02:49.651Z,0.80
2023-01-25T05:04:54.623Z,0.80
2023-01-25T05:07:00.265Z,0.80
2023-01-25T05:09:08.314Z,0.80
2023-01-25T05:11:13.556Z,0.80
2023-01-25T05:13:27.135Z,0.80
2023-01-25T05:15:44.903Z,0.70
2023-01-25T05:17:49.794Z,0.80
2023-01-25T05:19:55.211Z,0.80
2023-01-25T05:21:59.124Z,0.80
2023-01-25T05:24:13.805Z,0.80
2023-01-25T05:26:31.926Z,0.70
2023-01-25T05:28:37.398Z,0.80
2023-01-25T05:30:59.203Z,0.80
2023-01-25T05:33:05.303Z,0.80
2023-01-25T05:35:12.600Z,0.80
2023-01-25T05:37:21.628Z,0.80
2023-01-25T05:39:36.605Z,0.70
2023-01-25T05:41:41.777Z,0.70
2023-01-25T05:43:46.784Z,0.70
2023-01-25T05:45:56.416Z,0.80
2023-01-25T05:48:02.626Z,0.80
2023-01-25T05:50:10.869Z,0.80
2023-01-25T05:52:28.854Z,0.80
2023-01-25T05:54:37.482Z,0.80
2023-01-25T05:56:48.234Z,0.80
2023-01-25T05:58:56.588Z,0.70
2023-01-25T06:01:03.516Z,0.80
2023-01-25T06:03:18.439Z,0.80
2023-01-25T06:05:24.001Z,0.80
2023-01-25T06:07:28.911Z,0.80
2023-01-25T06:09:36.699Z,0.70
2023-01-25T06:11:42.334Z,0.70
2023-01-25T06:13:47.869Z,0.70
2023-01-25T06:15:56.167Z,0.50
2023-01-25T06:18:38.123Z,0.50
2023-01-25T06:21:02.235Z,0.40
2023-01-25T06:23:14.058Z,0.30
2023-01-25T06:25:21.948Z,0.40
2023-01-25T06:27:27.127Z,0.10
2023-01-25T06:29:32.055Z,0.10
2023-01-25T06:31:37.626Z,0.00
2023-01-25T06:33:43.639Z,0.00
2023-01-25T06:35:52.531Z,0.20
2023-01-25T06:37:58.425Z,0.40
2023-01-25T06:40:03.313Z,0.40
2023-01-25T06:42:10.882Z,0.40
2023-01-25T06:44:16.150Z,0.50
2023-01-25T06:46:22.146Z,0.50
2023-01-25T06:48:27.259Z,0.40
2023-01-25T06:50:32.297Z,0.40
2023-01-25T06:52:37.655Z,0.50
2023-01-25T06:54:42.581Z,0.50
2023-01-25T06:56:47.500Z,0.50
2023-01-25T06:58:55.101Z,0.40
2023-01-25T07:01:04.443Z,0.50
2023-01-25T07:03:09.454Z,0.40
2023-01-25T07:05:14.688Z,0.50
2023-01-25T07:07:19.743Z,0.40
2023-01-25T07:09:25.161Z,0.40
2023-01-25T07:11:30.457Z,0.40
2023-01-25T07:13:37.061Z,0.40
2023-01-25T07:15:44.661Z,0.40
2023-01-25T07:17:50.236Z,0.30
2023-01-25T07:19:55.155Z,0.40
2023-01-25T07:22:00.234Z,0.50
2023-01-25T07:24:07.620Z,0.50
2023-01-25T07:26:20.189Z,0.50
2023-01-25T07:28:25.372Z,0.50
2023-01-25T07:30:32.767Z,0.50
2023-01-25T07:32:40.236Z,0.50
2023-01-25T07:34:45.147Z,0.50
2023-01-25T07:36:50.577Z,0.50
2023-01-25T07:38:57.435Z,0.50
2023-01-25T07:41:04.604Z,0.50
2023-01-25T07:43:09.497Z,0.50
2023-01-25T07:45:15.542Z,0.50
2023-01-25T07:47:20.911Z,0.60
2023-01-25T07:49:28.776Z,0.60
2023-01-25T07:51:33.713Z,0.60
2023-01-25T07:53:38.719Z,0.60
2023-01-25T07:55:43.645Z,0.50
2023-01-25T07:57:48.800Z,0.50
2023-01-25T07:59:53.805Z,0.60
2023-01-25T08:01:58.940Z,0.60
2023-01-25T08:04:05.173Z,0.60
2023-01-25T08:06:13.580Z,0.60
2023-01-25T08:08:18.494Z,0.50
2023-01-25T08:10:24.354Z,0.50
2023-01-25T08:12:29.510Z,0.60
2023-01-25T08:14:34.476Z,0.50
2023-01-25T08:16:39.497Z,0.50
2023-01-25T08:18:44.706Z,0.30
2023-01-25T08:20:50.858Z,0.30
2023-01-25T08:22:58.577Z,0.40
2023-01-25T08:25:03.819Z,0.50
2023-01-25T08:27:08.880Z,0.50
2023-01-25T08:29:15.254Z,0.50
2023-01-25T08:31:23.671Z,0.50
2023-01-25T08:33:28.611Z,0.50
2023-01-25T08:35:35.696Z,0.60
2023-01-25T08:37:40.690Z,0.50
2023-01-25T08:39:48.204Z,0.50
2023-01-25T08:41:53.055Z,0.40
2023-01-25T08:43:59.123Z,0.40
2023-01-25T08:46:04.504Z,0.40
2023-01-25T08:48:12.205Z,0.50
2023-01-25T08:50:17.184Z,0.50
2023-01-25T08:52:23.045Z,0.50
2023-01-25T08:54:28.418Z,0.50
2023-01-25T08:56:36.178Z,0.50
2023-01-25T08:58:43.699Z,0.50
2023-01-25T09:00:49.096Z,0.50
2023-01-25T09:02:54.042Z,0.50
2023-01-25T09:04:59.349Z,0.50
2023-01-25T09:07:04.370Z,0.50
2023-01-25T09:09:10.328Z,0.50
2023-01-25T09:11:18.067Z,0.50
2023-01-25T09:13:25.835Z,0.50
2023-01-25T09:15:31.080Z,0.50
2023-01-25T09:17:38.997Z,0.50
2023-01-25T09:19:44.355Z,0.60
2023-01-25T09:21:49.288Z,0.60
2023-01-25T09:24:11.511Z,0.60
2023-01-25T09:26:16.435Z,0.50
2023-01-25T09:28:21.305Z,0.40
2023-01-25T09:30:44.835Z,0.40
2023-01-25T09:33:03.837Z,0.40
2023-01-25T09:35:09.767Z,0.50
2023-01-25T09:37:14.621Z,0.40
2023-01-25T09:39:20.775Z,0.40
2023-01-25T09:41:48.316Z,0.40
2023-01-25T09:44:14.655Z,0.50
2023-01-25T09:46:37.199Z,0.40
2023-01-25T09:49:02.849Z,0.50
2023-01-25T09:51:26.273Z,0.40
2023-01-25T09:53:36.345Z,0.40
2023-01-25T09:55:42.556Z,0.20
2023-01-25T09:57:51.011Z,0.30
2023-01-25T09:59:59.588Z,0.40
2023-01-25T10:02:22.838Z,0.30
2023-01-25T10:04:31.362Z,0.50
2023-01-25T10:06:54.987Z,0.50
2023-01-25T10:09:23.035Z,0.50
2023-01-25T10:11:31.247Z,0.50
2023-01-25T10:13:36.248Z,0.60
2023-01-25T10:15:46.262Z,0.50
2023-01-25T10:18:01.920Z,0.50
2023-01-25T10:20:24.164Z,0.50
2023-01-25T10:22:32.864Z,0.50
2023-01-25T10:25:21.457Z,0.60
2023-01-25T10:27:37.062Z,0.50
2023-01-25T10:29:42.479Z,0.60
2023-01-25T10:31:53.816Z,0.40
2023-01-25T10:34:03.466Z,0.50
2023-01-25T10:36:09.560Z,0.30
2023-01-25T10:38:21.428Z,0.40
2023-01-25T10:40:29.691Z,0.40
2023-01-25T10:42:42.917Z,0.40
2023-01-25T10:44:47.767Z,0.30
2023-01-25T10:47:00.749Z,0.40
2023-01-25T10:49:24.754Z,0.40
2023-01-25T10:51:35.697Z,0.30
2023-01-25T10:53:44.170Z,0.40
2023-01-25T10:56:17.189Z,0.40
2023-01-25T10:58:35.560Z,0.50
2023-01-25T11:00:44.045Z,0.60
2023-01-25T11:02:50.791Z,0.60
2023-01-25T11:04:58.257Z,0.60
2023-01-25T11:07:05.080Z,0.70
2023-01-25T11:09:37.121Z,0.60
2023-01-25T11:11:43.184Z,0.70
2023-01-25T11:13:48.132Z,0.60
2023-01-25T11:15:55.810Z,0.70
2023-01-25T11:18:09.073Z,0.70
2023-01-25T11:20:24.486Z,0.60
2023-01-25T11:22:29.420Z,0.70
2023-01-25T11:24:37.538Z,0.70
2023-01-25T11:26:43.902Z,0.70
2023-01-25T11:28:51.176Z,0.80
2023-01-25T11:30:57.011Z,0.80
2023-01-25T11:33:02.399Z,0.80
2023-01-25T11:35:15.614Z,0.80
2023-01-25T11:37:45.609Z,0.70
2023-01-25T11:40:02.025Z,0.50
2023-01-25T11:42:25.073Z,0.70
2023-01-25T11:45:00.622Z,0.60
2023-01-25T11:47:16.949Z,0.70
2023-01-25T11:49:37.980Z,0.70
2023-01-25T11:51:53.943Z,0.70
2023-01-25T11:54:32.608Z,0.80
2023-01-25T11:56:56.974Z,0.70
2023-01-25T11:59:32.788Z,0.60
2023-01-25T12:01:48.959Z,0.60
2023-01-25T12:04:25.445Z,0.70
2023-01-25T12:06:44.777Z,0.30
2023-01-25T12:09:06.000Z,0.30
2023-01-25T12:11:23.552Z,0.20
2023-01-25T12:13:46.709Z,0.50
2023-01-25T12:16:23.159Z,0.40
2023-01-25T12:18:56.732Z,0.30
2023-01-25T12:21:22.988Z,0.40
2023-01-25T12:23:54.103Z,0.60
2023-01-25T12:26:27.056Z,0.40
2023-01-25T12:28:39.579Z,0.50
2023-01-25T12:30:53.097Z,0.40
2023-01-25T12:33:14.048Z,0.40
2023-01-25T12:35:33.800Z,0.50
2023-01-25T12:37:44.761Z,0.40
2023-01-25T12:39:57.033Z,0.30
2023-01-25T12:42:14.592Z,0.50
2023-01-25T12:44:27.216Z,0.40
2023-01-25T12:46:41.848Z,0.30
2023-01-25T12:48:52.952Z,0.30
2023-01-25T12:50:59.766Z,0.40
2023-01-25T12:53:16.266Z,0.40
2023-01-25T12:55:21.957Z,0.40
2023-01-25T12:57:38.870Z,0.50
2023-01-25T12:59:56.660Z,0.60
2023-01-25T13:02:17.239Z,0.60
2023-01-25T13:04:46.251Z,0.70
2023-01-25T13:06:58.638Z,0.70
2023-01-25T13:09:14.474Z,0.70
2023-01-25T13:11:25.426Z,0.70
2023-01-25T13:13:33.702Z,0.70
2023-01-25T13:15:44.504Z,0.70
2023-01-25T13:17:49.692Z,0.70
2023-01-25T13:19:56.111Z,0.70
2023-01-25T13:22:03.170Z,0.50
2023-01-25T13:24:20.842Z,0.40
2023-01-25T13:26:51.376Z,0.30
2023-01-25T13:29:01.142Z,0.50
2023-01-25T13:31:06.245Z,0.60
2023-01-25T13:33:11.279Z,0.50
2023-01-25T13:35:50.633Z,0.30
2023-01-25T13:38:06.087Z,0.40
2023-01-25T13:40:34.163Z,0.50
2023-01-25T13:42:42.773Z,0.60
2023-01-25T13:44:52.819Z,0.60
2023-01-25T13:46:57.795Z,0.60
2023-01-25T13:49:08.549Z,0.60
2023-01-25T13:51:19.473Z,0.60
2023-01-25T13:53:29.513Z,0.60
2023-01-25T13:55:43.799Z,0.70
2023-01-25T13:57:49.097Z,0.60
2023-01-25T14:00:11.018Z,0.60
2023-01-25T14:02:22.460Z,0.70
2023-01-25T14:04:28.022Z,0.70
2023-01-25T14:06:36.191Z,0.60
2023-01-25T14:08:42.018Z,0.70
2023-01-25T14:10:47.871Z,0.70
2023-01-25T14:12:54.840Z,0.70
2023-01-25T14:15:00.164Z,0.70
2023-01-25T14:17:18.702Z,0.60
2023-01-25T14:19:30.158Z,0.60
2023-01-25T14:21:35.060Z,0.70
2023-01-25T14:23:40.919Z,0.70
2023-01-25T14:25:45.789Z,0.70
2023-01-25T14:27:56.055Z,0.60
2023-01-25T14:30:01.245Z,0.60
2023-01-25T14:32:09.234Z,0.60
2023-01-25T14:34:21.808Z,0.60
2023-01-25T14:36:31.918Z,0.70
2023-01-25T14:38:40.135Z,0.70
2023-01-25T14:40:46.149Z,0.70
2023-01-25T14:42:51.341Z,0.70
2023-01-25T14:44:56.328Z,0.60
2023-01-25T14:47:33.003Z,0.60
2023-01-25T14:49:37.893Z,0.50
2023-01-25T14:51:48.334Z,0.60
2023-01-25T14:54:01.004Z,0.60
2023-01-25T14:56:05.878Z,0.40
2023-01-25T14:58:19.780Z,0.40
2023-01-25T15:00:31.701Z,0.40
2023-01-25T15:02:43.849Z,0.40
2023-01-25T15:05:10.906Z,0.40
2023-01-25T15:07:37.083Z,0.50
2023-01-25T15:09:44.968Z,0.50
2023-01-25T15:11:50.850Z,0.60
2023-01-25T15:14:05.943Z,0.60
2023-01-25T15:16:11.508Z,0.60
2023-01-25T15:18:47.465Z,0.60
2023-01-25T15:20:53.158Z,0.40
2023-01-25T15:22:58.976Z,0.40
2023-01-25T15:25:05.816Z,0.50
2023-01-25T15:27:14.366Z,0.60
2023-01-25T15:29:23.149Z,0.20
2023-01-25T15:31:31.293Z,0.20
2023-01-25T15:33:37.288Z,0.30
2023-01-25T15:35:45.431Z,0.40
2023-01-25T15:37:51.352Z,0.40
2023-01-25T15:39:56.736Z,0.40
2023-01-25T15:42:01.567Z,0.50
2023-01-25T15:44:07.533Z,0.50
2023-01-25T15:46:21.077Z,0.40
2023-01-25T15:48:32.383Z,0.20
2023-01-25T15:50:37.670Z,0.20
2023-01-25T15:52:45.519Z,0.30
2023-01-25T15:54:59.855Z,0.30
2023-01-25T15:57:06.332Z,0.10
2023-01-25T15:59:18.467Z,0.20
2023-01-25T16:01:27.070Z,0.20
2023-01-25T16:03:33.418Z,0.20
2023-01-25T16:05:39.687Z,0.30
2023-01-25T16:07:48.489Z,0.30
2023-01-25T16:09:54.077Z,0.30
2023-01-25T16:12:01.812Z,0.40
2023-01-25T16:14:07.977Z,0.50
2023-01-25T16:16:21.799Z,0.50
2023-01-25T16:18:27.111Z,0.50
2023-01-25T16:20:32.237Z,0.40
2023-01-25T16:22:37.368Z,0.40
2023-01-25T16:24:45.382Z,0.50
2023-01-25T16:26:54.813Z,0.50
2023-01-25T16:29:00.092Z,0.50
2023-01-25T16:31:05.494Z,0.50
2023-01-25T16:33:11.017Z,0.30
2023-01-25T16:35:16.245Z,0.20
2023-01-25T16:37:21.688Z,0.30
2023-01-25T16:39:28.833Z,0.30
2023-01-25T16:41:37.524Z,0.40
2023-01-25T16:43:44.166Z,0.30
2023-01-25T16:45:49.159Z,0.30
2023-01-25T16:47:54.973Z,0.20
2023-01-25T16:49:59.843Z,0.20
2023-01-25T16:52:06.241Z,0.20
2023-01-25T16:54:14.753Z,0.20
2023-01-25T16:56:21.962Z,0.30
2023-01-25T16:58:29.431Z,0.30
2023-01-25T17:00:34.348Z,0.30
2023-01-25T17:02:41.903Z,0.20
2023-01-25T17:04:52.002Z,0.10
2023-01-25T17:06:58.860Z,0.00
2023-01-25T17:09:21.574Z,0.00
2023-01-25T17:11:28.424Z,0.00
2023-01-25T17:13:36.433Z,0.10
2023-01-25T17:15:41.302Z,0.10
2023-01-25T17:17:46.204Z,0.10
2023-01-25T17:19:52.663Z,0.10
2023-01-25T17:21:59.117Z,0.20
2023-01-25T17:24:05.383Z,0.30
2023-01-25T17:26:14.515Z,0.30
2023-01-25T17:28:19.778Z,0.30
2023-01-25T17:30:27.391Z,0.20
2023-01-25T17:32:32.328Z,0.20
2023-01-25T17:34:37.633Z,0.10
2023-01-25T17:36:43.605Z,0.00
2023-01-25T17:38:49.370Z,0.00
2023-01-25T17:40:54.468Z,0.00
2023-01-25T17:42:59.358Z,-0.10
2023-01-25T17:45:05.015Z,0.00
2023-01-25T17:47:12.521Z,0.10
2023-01-25T17:49:19.472Z,0.20
2023-01-25T17:51:25.303Z,0.10
2023-01-25T17:53:30.491Z,0.20
2023-01-25T17:55:39.867Z,0.20
2023-01-25T17:57:45.082Z,0.10
2023-01-25T17:59:50.998Z,0.00
2023-01-25T18:01:55.945Z,0.00
2023-01-25T18:04:03.708Z,0.00
2023-01-25T18:06:10.641Z,0.10
2023-01-25T18:08:17.055Z,0.10
2023-01-25T18:10:22.276Z,0.10
2023-01-25T18:12:27.683Z,0.10
2023-01-25T18:14:33.027Z,0.10
2023-01-25T18:16:41.727Z,0.10
2023-01-25T18:18:48.222Z,0.00
2023-01-25T18:21:04.181Z,0.00
2023-01-25T18:23:09.085Z,0.10
2023-01-25T18:25:35.091Z,0.00
2023-01-25T18:27:40.056Z,0.00
2023-01-25T18:29:55.209Z,0.00
2023-01-25T18:32:03.131Z,0.00
2023-01-25T18:34:08.181Z,-0.10
2023-01-25T18:36:17.687Z,-0.10
2023-01-25T18:38:22.868Z,-0.10
2023-01-25T18:40:29.879Z,-0.10
2023-01-25T18:42:34.754Z,-0.10
2023-01-25T18:44:39.671Z,-0.10
2023-01-25T18:46:45.509Z,-0.10
2023-01-25T18:48:51.219Z,0.00
2023-01-25T18:50:56.235Z,0.00
2023-01-25T18:53:03.705Z,0.00
2023-01-25T18:55:09.969Z,0.00
2023-01-25T18:57:15.882Z,-0.10
2023-01-25T18:59:20.775Z,-0.10
2023-01-25T19:01:26.194Z,0.00
2023-01-25T19:03:31.565Z,0.00
2023-01-25T19:05:38.065Z,0.00
2023-01-25T19:07:43.040Z,0.00
2023-01-25T19:09:50.929Z,0.00
2023-01-25T19:11:56.312Z,0.00
2023-01-25T19:14:01.759Z,0.00
2023-01-25T19:16:10.059Z,0.00
2023-01-25T19:18:15.190Z,0.00
2023-01-25T19:20:21.323Z,0.00
2023-01-25T19:22:27.440Z,0.00
2023-01-25T19:24:32.631Z,0.10
2023-01-25T19:26:40.597Z,0.10
2023-01-25T19:28:46.008Z,0.00
2023-01-25T19:30:51.108Z,0.00
2023-01-25T19:32:57.194Z,0.10
2023-01-25T19:35:02.156Z,0.00
2023-01-25T19:37:07.483Z,-0.10
2023-01-25T19:39:12.956Z,-0.10
2023-01-25T19:41:21.084Z,-0.10
2023-01-25T19:43:28.603Z,-0.10
2023-01-25T19:45:33.665Z,-0.10
2023-01-25T19:47:38.565Z,-0.20
2023-01-25T19:49:43.636Z,-0.10
2023-01-25T19:51:53.072Z,-0.10
2023-01-25T19:54:03.027Z,-0.20
2023-01-25T19:56:10.555Z,-0.20
2023-01-25T19:58:15.507Z,-0.10
2023-01-25T20:00:23.808Z,-0.10
2023-01-25T20:02:29.135Z,-0.10
2023-01-25T20:04:34.460Z,-0.10
2023-01-25T20:06:40.151Z,-0.20
2023-01-25T20:08:48.376Z,-0.10
2023-01-25T20:10:53.323Z,-0.10
2023-01-25T20:12:58.378Z,0.00
2023-01-25T20:15:03.655Z,0.00
2023-01-25T20:17:11.909Z,0.00
2023-01-25T20:19:17.121Z,0.00
2023-01-25T20:21:25.713Z,0.00
2023-01-25T20:23:34.049Z,0.00
2023-01-25T20:25:39.723Z,0.00
2023-01-25T20:27:44.771Z,0.00
2023-01-25T20:29:50.069Z,0.00
2023-01-25T20:31:54.891Z,0.00
2023-01-25T20:34:03.712Z,0.10
2023-01-25T20:36:09.622Z,0.10
2023-01-25T20:38:15.534Z,0.10
2023-01-25T20:40:20.660Z,-0.20
2023-01-25T20:42:25.440Z,-0.30
2023-01-25T20:44:30.166Z,-0.30
2023-01-25T20:46:37.287Z,-0.10
2023-01-25T20:48:42.519Z,-0.30
2023-01-25T20:50:49.893Z,-0.40
2023-01-25T20:52:54.980Z,-0.20
2023-01-25T20:55:00.775Z,-0.20
2023-01-25T20:57:06.021Z,-0.20
2023-01-25T20:59:11.836Z,-0.30
2023-01-25T21:01:18.004Z,-0.20
2023-01-25T21:03:23.599Z,-0.10
2023-01-25T21:05:29.157Z,0.00
2023-01-25T21:07:37.278Z,0.00
2023-01-25T21:09:43.088Z,0.00
2023-01-25T21:11:49.154Z,0.00
2023-01-25T21:13:53.927Z,0.00
2023-01-25T21:16:03.452Z,0.00
2023-01-25T21:18:08.903Z,0.00
2023-01-25T21:20:14.095Z,0.00
2023-01-25T21:22:22.996Z,-0.10
2023-01-25T21:24:30.675Z,-0.20
2023-01-25T21:26:39.060Z,-0.20
2023-01-25T21:28:44.618Z,-0.10
2023-01-25T21:30:49.417Z,0.00
2023-01-25T21:32:55.001Z,0.00
2023-01-25T21:34:59.735Z,0.00
2023-01-25T21:37:07.596Z,0.10
2023-01-25T21:39:12.995Z,0.10
2023-01-25T21:41:24.157Z,0.00
2023-01-25T21:43:29.448Z,0.00
2023-01-25T21:45:46.748Z,0.00
2023-01-25T21:47:51.534Z,-0.10
2023-01-25T21:50:09.031Z,-0.30
2023-01-25T21:52:14.229Z,-0.30
2023-01-25T21:54:19.706Z,-0.30
2023-01-25T21:56:27.487Z,-0.20
2023-01-25T21:58:32.643Z,-0.20
2023-01-25T22:00:37.799Z,-0.20
2023-01-25T22:02:43.018Z,-0.20
2023-01-25T22:04:48.209Z,-0.20
2023-01-25T22:06:54.431Z,-0.30
2023-01-25T22:08:59.354Z,-0.30
2023-01-25T22:11:07.582Z,-0.20
2023-01-25T22:13:14.898Z,-0.20
2023-01-25T22:15:19.870Z,-0.20
2023-01-25T22:17:25.671Z,-0.10
2023-01-25T22:19:30.392Z,-0.20
2023-01-25T22:21:36.218Z,-0.30
2023-01-25T22:23:41.046Z,-0.20
2023-01-25T22:25:47.338Z,-0.20
2023-01-25T22:27:58.355Z,-0.10
2023-01-25T22:30:06.764Z,-0.10
2023-01-25T22:32:11.944Z,-0.10
2023-01-25T22:34:16.794Z,-0.10
2023-01-25T22:36:23.468Z,-0.10
2023-01-25T22:38:28.241Z,-0.10
2023-01-25T22:40:32.996Z,-0.10
2023-01-25T22:42:37.791Z,-0.20
2023-01-25T22:44:42.527Z,-0.20
2023-01-25T22:46:50.703Z,-0.20
2023-01-25T22:48:55.793Z,-0.20
2023-01-25T22:51:05.131Z,-0.10
2023-01-25T22:53:09.925Z,-0.10
2023-01-25T22:55:15.090Z,-0.10
2023-01-25T22:57:20.194Z,-0.20
2023-01-25T22:59:25.363Z,-0.20
2023-01-25T23:01:31.980Z,-0.20
2023-01-25T23:03:39.630Z,-0.20
2023-01-25T23:05:44.306Z,-0.10
2023-01-25T23:07:49.389Z,-0.20
2023-01-25T23:09:54.598Z,-0.30
2023-01-25T23:11:59.314Z,-0.50
2023-01-25T23:14:17.879Z,-0.50
2023-01-25T23:16:22.648Z,-0.40
2023-01-25T23:18:39.957Z,-0.30
2023-01-25T23:20:47.533Z,-0.20
2023-01-25T23:22:53.915Z,-0.10
2023-01-25T23:24:58.636Z,-0.10
2023-01-25T23:27:03.827Z,-0.10
2023-01-25T23:29:13.502Z,-0.10
2023-01-25T23:31:21.848Z,0.00
2023-01-25T23:33:26.721Z,-0.10
2023-01-25T23:35:31.874Z,0.00
2023-01-25T23:37:39.180Z,0.00
2023-01-25T23:39:43.933Z,-0.10
2023-01-25T23:41:51.234Z,-0.10
2023-01-25T23:43:56.620Z,-0.10
2023-01-25T23:46:01.432Z,-0.10
2023-01-25T23:48:06.421Z,-0.10
2023-01-25T23:50:13.671Z,-0.10
2023-01-25T23:52:18.527Z,-0.10
2023-01-25T23:54:27.591Z,-0.10
2023-01-25T23:56:32.380Z,-0.10
2023-01-25T23:58:39.255Z,0.00
